Startpagina
METAR-TAF:

METAR-TAF

Vliegvelden :

Bangalore, India

breedte: 12-57-00N, lengte: 077-40-06E, hoogte: 888 m

Actueel weer

Dit bericht is 44 minuten geleden gemaakt, om 18:00 UTC
Wind 5 kt uit het noordoosten
Temperatuur 21°C
Vochtigheid 88%
Druk 1016 hPa
Zicht: 6000 m
Verspreide wolken op 1000 ft
Verspreide wolken op 1200 ft

METAR: VOBG 161800Z 05005KT 6000 SCT010 SCT012 21/19 Q1016

Tijdstip: 00:14 (18:44 UTC)

Verwachting

Dit bericht is 1 uur en het 44 minuten geleden gemaakt, om 17:00 UTC
Verwachting geldig van 16 om 18 UTC tot 17 om 03 UTC
Wind 5 kt uit het oosten
Zicht: 6000 m
Verspreide wolken op 1200 ft
Verspreide wolken op 8000 ft
Tijdelijke
van 16 om 21 UTC tot 17 om 03 UTC
Zicht: 3000 m
Verspreide wolken op 800 ft
Verspreide wolken op 1200 ft
motregen, nevel

TAF: VOBG 161700Z 1618/1703 09005KT 6000 SCT012 SCT080 TEMPO 1621/1703 3000 DZ BR SCT008 SCT012

Waarnemingen en weersverwachtingen van meer dan 4000 vliegvelden (METAR en TAF).

De beschikbare stations zijn de gele en rode punten op de kaart.

Ga met uw muis naar het station om de naam te zien.

Klik dan om waarnemingen en weersverwachtingen te zien.

kaart wijzigen: klik op de groene knoppen met een zwart kruis om in te zoomen, op de groene knop met een streepje om uit te zoomen of op de groene pijlen voor aangrenzende kaarten.


METAR-TAF: